sensor_id;sensor_type;location;lat;lon;timestamp;P1;durP1;ratioP1;P2;durP2;ratioP2
42260;SDS011;27926;48.062;7.474;2023-03-01T00:01:12;36.90;;;17.67;;
42260;SDS011;27926;48.062;7.474;2023-03-01T00:03:39;46.05;;;20.77;;
42260;SDS011;27926;48.062;7.474;2023-03-01T00:06:04;43.77;;;19.23;;
42260;SDS011;27926;48.062;7.474;2023-03-01T00:08:29;42.63;;;17.73;;
42260;SDS011;27926;48.062;7.474;2023-03-01T00:11:04;44.67;;;20.02;;
42260;SDS011;27926;48.062;7.474;2023-03-01T00:13:41;43.90;;;20.23;;
42260;SDS011;27926;48.062;7.474;2023-03-01T00:16:07;41.08;;;17.65;;
42260;SDS011;27926;48.062;7.474;2023-03-01T00:18:43;38.05;;;18.23;;
42260;SDS011;27926;48.062;7.474;2023-03-01T00:23:34;49.63;;;18.20;;
42260;SDS011;27926;48.062;7.474;2023-03-01T00:28:24;35.90;;;16.92;;
42260;SDS011;27926;48.062;7.474;2023-03-01T00:30:49;42.50;;;19.20;;
42260;SDS011;27926;48.062;7.474;2023-03-01T00:33:13;45.37;;;19.67;;
42260;SDS011;27926;48.062;7.474;2023-03-01T00:35:38;43.50;;;17.80;;
42260;SDS011;27926;48.062;7.474;2023-03-01T00:38:03;36.60;;;16.90;;
42260;SDS011;27926;48.062;7.474;2023-03-01T00:40:28;41.78;;;18.98;;
42260;SDS011;27926;48.062;7.474;2023-03-01T00:42:54;46.42;;;18.48;;
42260;SDS011;27926;48.062;7.474;2023-03-01T00:45:20;41.38;;;19.90;;
42260;SDS011;27926;48.062;7.474;2023-03-01T00:47:45;40.67;;;18.40;;
42260;SDS011;27926;48.062;7.474;2023-03-01T00:50:10;39.07;;;18.03;;
42260;SDS011;27926;48.062;7.474;2023-03-01T00:55:00;46.50;;;17.08;;
42260;SDS011;27926;48.062;7.474;2023-03-01T00:57:24;44.80;;;17.83;;
42260;SDS011;27926;48.062;7.474;2023-03-01T00:59:51;50.97;;;18.17;;
42260;SDS011;27926;48.062;7.474;2023-03-01T01:02:19;43.78;;;18.02;;
42260;SDS011;27926;48.062;7.474;2023-03-01T01:04:47;45.42;;;17.40;;
42260;SDS011;27926;48.062;7.474;2023-03-01T01:07:12;40.63;;;19.17;;
42260;SDS011;27926;48.062;7.474;2023-03-01T01:09:37;39.63;;;19.00;;
42260;SDS011;27926;48.062;7.474;2023-03-01T01:12:02;35.03;;;16.43;;
42260;SDS011;27926;48.062;7.474;2023-03-01T01:14:30;35.15;;;16.63;;
42260;SDS011;27926;48.062;7.474;2023-03-01T01:16:54;39.47;;;18.30;;
42260;SDS011;27926;48.062;7.474;2023-03-01T01:19:19;43.07;;;17.30;;
42260;SDS011;27926;48.062;7.474;2023-03-01T01:21:44;36.30;;;16.80;;
42260;SDS011;27926;48.062;7.474;2023-03-01T01:24:08;39.43;;;18.67;;
42260;SDS011;27926;48.062;7.474;2023-03-01T01:26:33;37.03;;;17.27;;
42260;SDS011;27926;48.062;7.474;2023-03-01T01:28:59;39.05;;;19.30;;
42260;SDS011;27926;48.062;7.474;2023-03-01T01:31:27;41.38;;;18.27;;
42260;SDS011;27926;48.062;7.474;2023-03-01T01:33:53;39.10;;;16.70;;
42260;SDS011;27926;48.062;7.474;2023-03-01T01:36:18;39.55;;;18.02;;
42260;SDS011;27926;48.062;7.474;2023-03-01T01:38:43;33.58;;;16.80;;
42260;SDS011;27926;48.062;7.474;2023-03-01T01:41:08;41.40;;;17.23;;
42260;SDS011;27926;48.062;7.474;2023-03-01T01:43:38;38.38;;;17.40;;
42260;SDS011;27926;48.062;7.474;2023-03-01T01:48:48;39.72;;;16.70;;
42260;SDS011;27926;48.062;7.474;2023-03-01T01:51:22;50.33;;;17.70;;
42260;SDS011;27926;48.062;7.474;2023-03-01T01:53:53;36.08;;;16.67;;
42260;SDS011;27926;48.062;7.474;2023-03-01T01:56:22;40.33;;;17.33;;
42260;SDS011;27926;48.062;7.474;2023-03-01T01:58:50;46.00;;;17.02;;
42260;SDS011;27926;48.062;7.474;2023-03-01T02:01:15;38.13;;;17.52;;
42260;SDS011;27926;48.062;7.474;2023-03-01T02:03:40;38.80;;;18.07;;
42260;SDS011;27926;48.062;7.474;2023-03-01T02:08:41;39.15;;;17.83;;
42260;SDS011;27926;48.062;7.474;2023-03-01T02:11:06;48.28;;;19.10;;
42260;SDS011;27926;48.062;7.474;2023-03-01T02:13:33;55.85;;;18.38;;
42260;SDS011;27926;48.062;7.474;2023-03-01T02:15:59;46.17;;;19.92;;
42260;SDS011;27926;48.062;7.474;2023-03-01T02:18:26;43.70;;;18.52;;
42260;SDS011;27926;48.062;7.474;2023-03-01T02:20:54;40.90;;;18.70;;
42260;SDS011;27926;48.062;7.474;2023-03-01T02:23:40;37.63;;;17.23;;
42260;SDS011;27926;48.062;7.474;2023-03-01T02:28:32;37.85;;;17.75;;
42260;SDS011;27926;48.062;7.474;2023-03-01T02:30:59;35.95;;;16.98;;
42260;SDS011;27926;48.062;7.474;2023-03-01T02:33:44;33.25;;;16.15;;
42260;SDS011;27926;48.062;7.474;2023-03-01T02:36:11;32.42;;;15.77;;
42260;SDS011;27926;48.062;7.474;2023-03-01T02:38:41;43.90;;;17.33;;
42260;SDS011;27926;48.062;7.474;2023-03-01T02:41:06;35.38;;;16.88;;
42260;SDS011;27926;48.062;7.474;2023-03-01T02:43:32;36.67;;;16.30;;
42260;SDS011;27926;48.062;7.474;2023-03-01T02:45:59;36.75;;;16.45;;
42260;SDS011;27926;48.062;7.474;2023-03-01T02:48:39;32.17;;;15.73;;
42260;SDS011;27926;48.062;7.474;2023-03-01T02:56:21;36.60;;;17.98;;
42260;SDS011;27926;48.062;7.474;2023-03-01T02:58:46;35.77;;;15.80;;
42260;SDS011;27926;48.062;7.474;2023-03-01T03:01:15;42.08;;;16.15;;
42260;SDS011;27926;48.062;7.474;2023-03-01T03:03:39;31.87;;;16.10;;
42260;SDS011;27926;48.062;7.474;2023-03-01T03:06:04;36.33;;;16.13;;
42260;SDS011;27926;48.062;7.474;2023-03-01T03:08:29;36.13;;;15.97;;
42260;SDS011;27926;48.062;7.474;2023-03-01T03:10:56;37.63;;;16.50;;
42260;SDS011;27926;48.062;7.474;2023-03-01T03:13:22;35.38;;;16.55;;
42260;SDS011;27926;48.062;7.474;2023-03-01T03:15:52;30.88;;;14.88;;
42260;SDS011;27926;48.062;7.474;2023-03-01T03:18:17;35.67;;;15.70;;
42260;SDS011;27926;48.062;7.474;2023-03-01T03:20:45;37.50;;;17.15;;
42260;SDS011;27926;48.062;7.474;2023-03-01T03:23:10;37.90;;;16.73;;
42260;SDS011;27926;48.062;7.474;2023-03-01T03:25:35;34.08;;;16.38;;
42260;SDS011;27926;48.062;7.474;2023-03-01T03:28:01;36.08;;;15.50;;
42260;SDS011;27926;48.062;7.474;2023-03-01T03:30:33;37.83;;;15.43;;
42260;SDS011;27926;48.062;7.474;2023-03-01T03:32:58;43.37;;;16.00;;
42260;SDS011;27926;48.062;7.474;2023-03-01T03:35:24;37.92;;;17.88;;
42260;SDS011;27926;48.062;7.474;2023-03-01T03:37:52;47.55;;;17.13;;
42260;SDS011;27926;48.062;7.474;2023-03-01T03:40:26;35.47;;;16.40;;
42260;SDS011;27926;48.062;7.474;2023-03-01T03:42:52;36.85;;;16.92;;
42260;SDS011;27926;48.062;7.474;2023-03-01T03:45:17;30.10;;;15.97;;
42260;SDS011;27926;48.062;7.474;2023-03-01T03:47:42;43.70;;;17.38;;
42260;SDS011;27926;48.062;7.474;2023-03-01T03:50:07;37.72;;;16.50;;
42260;SDS011;27926;48.062;7.474;2023-03-01T03:52:33;40.72;;;17.23;;
42260;SDS011;27926;48.062;7.474;2023-03-01T03:54:57;39.23;;;16.97;;
42260;SDS011;27926;48.062;7.474;2023-03-01T03:57:22;40.47;;;16.50;;
42260;SDS011;27926;48.062;7.474;2023-03-01T03:59:46;36.70;;;16.13;;
42260;SDS011;27926;48.062;7.474;2023-03-01T04:02:11;35.80;;;16.53;;
42260;SDS011;27926;48.062;7.474;2023-03-01T04:04:35;32.90;;;15.23;;
42260;SDS011;27926;48.062;7.474;2023-03-01T04:07:00;40.33;;;15.23;;
42260;SDS011;27926;48.062;7.474;2023-03-01T04:09:25;32.83;;;16.40;;
42260;SDS011;27926;48.062;7.474;2023-03-01T04:11:49;38.57;;;16.50;;
42260;SDS011;27926;48.062;7.474;2023-03-01T04:14:14;37.47;;;16.17;;
42260;SDS011;27926;48.062;7.474;2023-03-01T04:16:38;36.73;;;18.13;;
42260;SDS011;27926;48.062;7.474;2023-03-01T04:19:03;35.30;;;16.67;;
42260;SDS011;27926;48.062;7.474;2023-03-01T04:21:30;38.58;;;17.73;;
42260;SDS011;27926;48.062;7.474;2023-03-01T04:26:20;36.45;;;15.60;;
42260;SDS011;27926;48.062;7.474;2023-03-01T04:28:45;32.83;;;15.70;;
42260;SDS011;27926;48.062;7.474;2023-03-01T04:31:12;32.60;;;16.20;;
42260;SDS011;27926;48.062;7.474;2023-03-01T04:33:46;43.28;;;17.25;;
42260;SDS011;27926;48.062;7.474;2023-03-01T04:36:15;34.42;;;15.38;;
42260;SDS011;27926;48.062;7.474;2023-03-01T04:41:07;39.50;;;16.80;;
42260;SDS011;27926;48.062;7.474;2023-03-01T04:43:33;40.17;;;18.05;;
42260;SDS011;27926;48.062;7.474;2023-03-01T04:46:02;33.25;;;16.85;;
42260;SDS011;27926;48.062;7.474;2023-03-01T04:48:28;34.63;;;16.30;;
42260;SDS011;27926;48.062;7.474;2023-03-01T04:50:54;32.33;;;16.15;;
42260;SDS011;27926;48.062;7.474;2023-03-01T04:53:19;35.10;;;17.27;;
42260;SDS011;27926;48.062;7.474;2023-03-01T04:55:44;35.03;;;17.93;;
42260;SDS011;27926;48.062;7.474;2023-03-01T04:58:08;38.37;;;17.53;;
42260;SDS011;27926;48.062;7.474;2023-03-01T05:00:33;36.27;;;16.87;;
42260;SDS011;27926;48.062;7.474;2023-03-01T05:02:59;39.10;;;16.97;;
42260;SDS011;27926;48.062;7.474;2023-03-01T05:05:28;38.97;;;18.33;;
42260;SDS011;27926;48.062;7.474;2023-03-01T05:07:58;40.35;;;16.77;;
42260;SDS011;27926;48.062;7.474;2023-03-01T05:10:25;43.03;;;18.48;;
42260;SDS011;27926;48.062;7.474;2023-03-01T05:12:53;40.08;;;16.90;;
42260;SDS011;27926;48.062;7.474;2023-03-01T05:15:18;50.67;;;19.42;;
42260;SDS011;27926;48.062;7.474;2023-03-01T05:17:43;38.15;;;17.67;;
42260;SDS011;27926;48.062;7.474;2023-03-01T05:20:08;36.67;;;16.40;;
42260;SDS011;27926;48.062;7.474;2023-03-01T05:22:34;40.97;;;17.17;;
42260;SDS011;27926;48.062;7.474;2023-03-01T05:24:59;43.13;;;17.20;;
42260;SDS011;27926;48.062;7.474;2023-03-01T05:27:24;40.63;;;18.17;;
42260;SDS011;27926;48.062;7.474;2023-03-01T05:29:48;44.63;;;19.53;;
42260;SDS011;27926;48.062;7.474;2023-03-01T05:32:13;42.87;;;18.93;;
42260;SDS011;27926;48.062;7.474;2023-03-01T05:34:39;34.08;;;18.48;;
42260;SDS011;27926;48.062;7.474;2023-03-01T05:37:04;42.90;;;20.10;;
42260;SDS011;27926;48.062;7.474;2023-03-01T05:39:29;42.33;;;17.93;;
42260;SDS011;27926;48.062;7.474;2023-03-01T05:41:54;47.00;;;19.80;;
42260;SDS011;27926;48.062;7.474;2023-03-01T05:44:20;44.42;;;19.80;;
42260;SDS011;27926;48.062;7.474;2023-03-01T05:46:45;43.55;;;19.30;;
42260;SDS011;27926;48.062;7.474;2023-03-01T05:49:10;46.63;;;19.83;;
42260;SDS011;27926;48.062;7.474;2023-03-01T05:51:37;36.67;;;18.52;;
42260;SDS011;27926;48.062;7.474;2023-03-01T05:54:02;40.60;;;18.87;;
42260;SDS011;27926;48.062;7.474;2023-03-01T05:56:26;45.07;;;18.83;;
42260;SDS011;27926;48.062;7.474;2023-03-01T05:58:51;44.70;;;21.03;;
42260;SDS011;27926;48.062;7.474;2023-03-01T06:01:18;47.20;;;20.43;;
42260;SDS011;27926;48.062;7.474;2023-03-01T06:03:43;40.72;;;20.33;;
42260;SDS011;27926;48.062;7.474;2023-03-01T06:06:07;37.53;;;18.93;;
42260;SDS011;27926;48.062;7.474;2023-03-01T06:08:32;40.43;;;19.00;;
42260;SDS011;27926;48.062;7.474;2023-03-01T06:10:56;38.17;;;19.17;;
42260;SDS011;27926;48.062;7.474;2023-03-01T06:13:22;33.97;;;18.23;;
42260;SDS011;27926;48.062;7.474;2023-03-01T06:18:11;35.58;;;18.58;;
42260;SDS011;27926;48.062;7.474;2023-03-01T06:20:36;35.10;;;18.97;;
42260;SDS011;27926;48.062;7.474;2023-03-01T06:23:01;38.55;;;17.95;;
42260;SDS011;27926;48.062;7.474;2023-03-01T06:25:27;37.40;;;19.30;;
42260;SDS011;27926;48.062;7.474;2023-03-01T06:27:52;38.15;;;19.60;;
42260;SDS011;27926;48.062;7.474;2023-03-01T06:30:17;40.07;;;19.10;;
42260;SDS011;27926;48.062;7.474;2023-03-01T06:32:43;40.10;;;20.98;;
42260;SDS011;27926;48.062;7.474;2023-03-01T06:35:08;45.60;;;19.73;;
42260;SDS011;27926;48.062;7.474;2023-03-01T06:37:38;40.55;;;18.00;;
42260;SDS011;27926;48.062;7.474;2023-03-01T06:40:03;46.05;;;20.17;;
42260;SDS011;27926;48.062;7.474;2023-03-01T06:42:32;39.50;;;18.42;;
42260;SDS011;27926;48.062;7.474;2023-03-01T06:44:56;44.93;;;21.63;;
42260;SDS011;27926;48.062;7.474;2023-03-01T06:47:21;40.43;;;19.23;;
42260;SDS011;27926;48.062;7.474;2023-03-01T06:49:45;44.17;;;20.40;;
42260;SDS011;27926;48.062;7.474;2023-03-01T06:52:10;42.33;;;19.47;;
42260;SDS011;27926;48.062;7.474;2023-03-01T06:54:34;38.07;;;19.17;;
42260;SDS011;27926;48.062;7.474;2023-03-01T06:56:59;41.37;;;19.90;;
42260;SDS011;27926;48.062;7.474;2023-03-01T06:59:24;41.53;;;20.70;;
42260;SDS011;27926;48.062;7.474;2023-03-01T07:01:48;37.17;;;16.53;;
42260;SDS011;27926;48.062;7.474;2023-03-01T07:04:13;50.17;;;21.80;;
42260;SDS011;27926;48.062;7.474;2023-03-01T07:06:37;42.50;;;19.53;;
42260;SDS011;27926;48.062;7.474;2023-03-01T07:09:02;46.97;;;18.63;;
42260;SDS011;27926;48.062;7.474;2023-03-01T07:11:27;60.77;;;20.43;;
42260;SDS011;27926;48.062;7.474;2023-03-01T07:13:52;55.53;;;21.37;;
42260;SDS011;27926;48.062;7.474;2023-03-01T07:16:16;47.53;;;20.43;;
42260;SDS011;27926;48.062;7.474;2023-03-01T07:18:41;46.40;;;21.63;;
42260;SDS011;27926;48.062;7.474;2023-03-01T07:21:06;39.13;;;18.57;;
42260;SDS011;27926;48.062;7.474;2023-03-01T07:25:56;49.42;;;20.70;;
42260;SDS011;27926;48.062;7.474;2023-03-01T07:28:24;50.87;;;19.10;;
42260;SDS011;27926;48.062;7.474;2023-03-01T07:30:49;42.72;;;21.02;;
42260;SDS011;27926;48.062;7.474;2023-03-01T07:33:13;49.67;;;21.37;;
42260;SDS011;27926;48.062;7.474;2023-03-01T07:35:38;45.60;;;20.27;;
42260;SDS011;27926;48.062;7.474;2023-03-01T07:38:03;48.20;;;20.77;;
42260;SDS011;27926;48.062;7.474;2023-03-01T07:40:27;42.67;;;19.43;;
42260;SDS011;27926;48.062;7.474;2023-03-01T07:42:55;42.95;;;20.00;;
42260;SDS011;27926;48.062;7.474;2023-03-01T07:45:21;45.58;;;21.00;;
42260;SDS011;27926;48.062;7.474;2023-03-01T07:47:46;49.53;;;22.37;;
42260;SDS011;27926;48.062;7.474;2023-03-01T07:50:11;40.80;;;20.43;;
42260;SDS011;27926;48.062;7.474;2023-03-01T07:52:35;42.77;;;21.43;;
42260;SDS011;27926;48.062;7.474;2023-03-01T07:55:00;42.63;;;20.63;;
42260;SDS011;27926;48.062;7.474;2023-03-01T07:57:24;44.03;;;20.03;;
42260;SDS011;27926;48.062;7.474;2023-03-01T07:59:49;46.00;;;20.93;;
42260;SDS011;27926;48.062;7.474;2023-03-01T08:02:13;52.70;;;21.83;;
42260;SDS011;27926;48.062;7.474;2023-03-01T08:04:39;45.78;;;20.27;;
42260;SDS011;27926;48.062;7.474;2023-03-01T08:07:04;41.87;;;21.20;;
42260;SDS011;27926;48.062;7.474;2023-03-01T08:09:29;63.42;;;22.80;;
42260;SDS011;27926;48.062;7.474;2023-03-01T08:11:55;48.63;;;22.73;;
42260;SDS011;27926;48.062;7.474;2023-03-01T08:14:23;57.35;;;22.88;;
42260;SDS011;27926;48.062;7.474;2023-03-01T08:16:51;73.87;;;30.30;;
42260;SDS011;27926;48.062;7.474;2023-03-01T08:19:15;47.83;;;21.65;;
42260;SDS011;27926;48.062;7.474;2023-03-01T08:21:40;48.53;;;21.45;;
42260;SDS011;27926;48.062;7.474;2023-03-01T08:24:06;43.57;;;21.37;;
42260;SDS011;27926;48.062;7.474;2023-03-01T08:28:56;41.72;;;19.77;;
42260;SDS011;27926;48.062;7.474;2023-03-01T08:31:22;50.67;;;21.27;;
42260;SDS011;27926;48.062;7.474;2023-03-01T08:33:53;55.90;;;21.30;;
42260;SDS011;27926;48.062;7.474;2023-03-01T08:36:19;46.55;;;20.67;;
42260;SDS011;27926;48.062;7.474;2023-03-01T08:38:44;45.10;;;22.77;;
42260;SDS011;27926;48.062;7.474;2023-03-01T08:41:09;52.20;;;21.23;;
42260;SDS011;27926;48.062;7.474;2023-03-01T08:43:34;45.03;;;21.17;;
42260;SDS011;27926;48.062;7.474;2023-03-01T08:45:58;50.57;;;23.53;;
42260;SDS011;27926;48.062;7.474;2023-03-01T08:48:25;44.27;;;22.33;;
42260;SDS011;27926;48.062;7.474;2023-03-01T08:50:52;60.47;;;21.23;;
42260;SDS011;27926;48.062;7.474;2023-03-01T08:53:16;42.10;;;21.70;;
42260;SDS011;27926;48.062;7.474;2023-03-01T08:55:41;43.03;;;22.10;;
42260;SDS011;27926;48.062;7.474;2023-03-01T08:58:05;42.00;;;20.90;;
42260;SDS011;27926;48.062;7.474;2023-03-01T09:00:30;47.47;;;21.50;;
42260;SDS011;27926;48.062;7.474;2023-03-01T09:02:55;44.27;;;21.27;;
42260;SDS011;27926;48.062;7.474;2023-03-01T09:05:19;48.83;;;21.13;;
42260;SDS011;27926;48.062;7.474;2023-03-01T09:07:44;51.20;;;20.93;;
42260;SDS011;27926;48.062;7.474;2023-03-01T09:10:09;44.43;;;21.20;;
42260;SDS011;27926;48.062;7.474;2023-03-01T09:12:34;43.53;;;20.98;;
42260;SDS011;27926;48.062;7.474;2023-03-01T09:14:58;42.40;;;20.37;;
42260;SDS011;27926;48.062;7.474;2023-03-01T09:17:23;46.40;;;22.20;;
42260;SDS011;27926;48.062;7.474;2023-03-01T09:19:47;48.57;;;21.03;;
42260;SDS011;27926;48.062;7.474;2023-03-01T09:22:13;49.13;;;20.95;;
42260;SDS011;27926;48.062;7.474;2023-03-01T09:24:37;54.33;;;21.80;;
42260;SDS011;27926;48.062;7.474;2023-03-01T09:27:03;46.15;;;20.88;;
42260;SDS011;27926;48.062;7.474;2023-03-01T09:29:32;47.03;;;22.33;;
42260;SDS011;27926;48.062;7.474;2023-03-01T09:31:57;43.30;;;19.77;;
42260;SDS011;27926;48.062;7.474;2023-03-01T09:34:22;44.92;;;20.83;;
42260;SDS011;27926;48.062;7.474;2023-03-01T09:36:47;51.07;;;20.63;;
42260;SDS011;27926;48.062;7.474;2023-03-01T09:39:11;48.67;;;22.00;;
42260;SDS011;27926;48.062;7.474;2023-03-01T09:46:53;53.92;;;21.88;;
42260;SDS011;27926;48.062;7.474;2023-03-01T09:49:19;39.60;;;20.73;;
42260;SDS011;27926;48.062;7.474;2023-03-01T09:54:45;53.38;;;20.27;;
42260;SDS011;27926;48.062;7.474;2023-03-01T09:57:17;45.40;;;21.40;;
42260;SDS011;27926;48.062;7.474;2023-03-01T10:02:27;41.47;;;20.08;;
42260;SDS011;27926;48.062;7.474;2023-03-01T10:05:05;62.15;;;22.15;;
42260;SDS011;27926;48.062;7.474;2023-03-01T10:08:00;50.70;;;20.88;;
42260;SDS011;27926;48.062;7.474;2023-03-01T10:10:39;41.67;;;19.60;;
42260;SDS011;27926;48.062;7.474;2023-03-01T10:13:13;46.92;;;22.02;;
42260;SDS011;27926;48.062;7.474;2023-03-01T10:15:52;39.70;;;18.80;;
42260;SDS011;27926;48.062;7.474;2023-03-01T10:18:20;43.25;;;21.15;;
42260;SDS011;27926;48.062;7.474;2023-03-01T10:23:15;48.25;;;23.00;;
42260;SDS011;27926;48.062;7.474;2023-03-01T10:28:42;47.55;;;23.00;;
42260;SDS011;27926;48.062;7.474;2023-03-01T10:39:11;47.83;;;21.88;;
42260;SDS011;27926;48.062;7.474;2023-03-01T10:41:40;49.00;;;21.83;;
42260;SDS011;27926;48.062;7.474;2023-03-01T10:47:13;38.20;;;19.75;;
42260;SDS011;27926;48.062;7.474;2023-03-01T10:49:51;40.35;;;20.05;;
42260;SDS011;27926;48.062;7.474;2023-03-01T10:52:17;46.90;;;21.70;;
42260;SDS011;27926;48.062;7.474;2023-03-01T10:54:50;42.88;;;19.55;;
42260;SDS011;27926;48.062;7.474;2023-03-01T11:02:43;42.10;;;20.10;;
42260;SDS011;27926;48.062;7.474;2023-03-01T11:07:52;40.28;;;21.40;;
42260;SDS011;27926;48.062;7.474;2023-03-01T11:10:22;41.63;;;19.67;;
42260;SDS011;27926;48.062;7.474;2023-03-01T11:12:52;42.75;;;20.10;;
42260;SDS011;27926;48.062;7.474;2023-03-01T11:15:29;41.88;;;20.83;;
42260;SDS011;27926;48.062;7.474;2023-03-01T11:17:54;43.05;;;20.17;;
42260;SDS011;27926;48.062;7.474;2023-03-01T11:20:24;41.13;;;20.55;;
42260;SDS011;27926;48.062;7.474;2023-03-01T11:23:18;45.85;;;21.23;;
42260;SDS011;27926;48.062;7.474;2023-03-01T11:25:43;48.40;;;20.77;;
42260;SDS011;27926;48.062;7.474;2023-03-01T11:28:14;40.97;;;19.33;;
42260;SDS011;27926;48.062;7.474;2023-03-01T11:30:44;38.22;;;19.80;;
42260;SDS011;27926;48.062;7.474;2023-03-01T11:33:18;37.63;;;18.55;;
42260;SDS011;27926;48.062;7.474;2023-03-01T11:36:28;37.95;;;18.88;;
42260;SDS011;27926;48.062;7.474;2023-03-01T11:38:37;48.65;;;20.23;;
42260;SDS011;27926;48.062;7.474;2023-03-01T11:41:06;43.40;;;20.48;;
42260;SDS011;27926;48.062;7.474;2023-03-01T11:54:28;38.15;;;18.60;;
42260;SDS011;27926;48.062;7.474;2023-03-01T12:06:05;36.80;;;19.15;;
42260;SDS011;27926;48.062;7.474;2023-03-01T12:08:49;37.30;;;19.08;;
42260;SDS011;27926;48.062;7.474;2023-03-01T12:11:32;35.40;;;17.35;;
42260;SDS011;27926;48.062;7.474;2023-03-01T12:14:25;36.53;;;19.10;;
42260;SDS011;27926;48.062;7.474;2023-03-01T12:25:04;39.83;;;20.70;;
42260;SDS011;27926;48.062;7.474;2023-03-01T12:27:37;36.22;;;18.77;;
42260;SDS011;27926;48.062;7.474;2023-03-01T12:35:37;34.92;;;17.80;;
42260;SDS011;27926;48.062;7.474;2023-03-01T12:51:44;34.38;;;18.25;;
42260;SDS011;27926;48.062;7.474;2023-03-01T12:54:24;41.20;;;20.40;;
42260;SDS011;27926;48.062;7.474;2023-03-01T12:57:03;37.75;;;19.20;;
42260;SDS011;27926;48.062;7.474;2023-03-01T12:59:39;44.65;;;19.15;;
42260;SDS011;27926;48.062;7.474;2023-03-01T13:07:58;40.08;;;19.35;;
42260;SDS011;27926;48.062;7.474;2023-03-01T13:13:10;39.13;;;18.48;;
42260;SDS011;27926;48.062;7.474;2023-03-01T13:15:39;34.53;;;18.83;;
42260;SDS011;27926;48.062;7.474;2023-03-01T13:26:01;36.15;;;19.35;;
42260;SDS011;27926;48.062;7.474;2023-03-01T13:31:55;38.42;;;20.00;;
42260;SDS011;27926;48.062;7.474;2023-03-01T13:34:01;44.10;;;21.02;;
42260;SDS011;27926;48.062;7.474;2023-03-01T13:39:00;42.30;;;19.52;;
42260;SDS011;27926;48.062;7.474;2023-03-01T13:46:45;38.58;;;19.67;;
42260;SDS011;27926;48.062;7.474;2023-03-01T13:49:11;38.33;;;19.50;;
42260;SDS011;27926;48.062;7.474;2023-03-01T13:51:40;38.90;;;19.92;;
42260;SDS011;27926;48.062;7.474;2023-03-01T13:54:05;45.33;;;21.55;;
42260;SDS011;27926;48.062;7.474;2023-03-01T13:56:36;42.72;;;22.00;;
42260;SDS011;27926;48.062;7.474;2023-03-01T13:59:03;41.28;;;20.17;;
42260;SDS011;27926;48.062;7.474;2023-03-01T14:01:31;37.03;;;19.13;;
42260;SDS011;27926;48.062;7.474;2023-03-01T14:04:00;42.35;;;20.50;;
42260;SDS011;27926;48.062;7.474;2023-03-01T14:06:28;38.13;;;20.73;;
42260;SDS011;27926;48.062;7.474;2023-03-01T14:19:37;37.38;;;20.45;;
42260;SDS011;27926;48.062;7.474;2023-03-01T14:22:22;35.47;;;18.88;;
42260;SDS011;27926;48.062;7.474;2023-03-01T14:24:48;42.25;;;20.98;;
42260;SDS011;27926;48.062;7.474;2023-03-01T14:27:14;45.15;;;22.45;;
42260;SDS011;27926;48.062;7.474;2023-03-01T14:29:40;40.53;;;19.95;;
42260;SDS011;27926;48.062;7.474;2023-03-01T14:32:18;41.72;;;21.70;;
42260;SDS011;27926;48.062;7.474;2023-03-01T14:34:45;36.45;;;19.73;;
42260;SDS011;27926;48.062;7.474;2023-03-01T14:37:17;43.22;;;20.75;;
42260;SDS011;27926;48.062;7.474;2023-03-01T14:39:43;39.97;;;21.00;;
42260;SDS011;27926;48.062;7.474;2023-03-01T14:42:08;41.47;;;20.15;;
42260;SDS011;27926;48.062;7.474;2023-03-01T14:44:33;40.55;;;20.40;;
42260;SDS011;27926;48.062;7.474;2023-03-01T14:47:01;42.33;;;22.58;;
42260;SDS011;27926;48.062;7.474;2023-03-01T14:49:27;44.35;;;22.30;;
42260;SDS011;27926;48.062;7.474;2023-03-01T14:52:02;42.40;;;21.52;;
42260;SDS011;27926;48.062;7.474;2023-03-01T14:57:12;46.22;;;21.35;;
42260;SDS011;27926;48.062;7.474;2023-03-01T14:59:40;39.35;;;20.85;;
42260;SDS011;27926;48.062;7.474;2023-03-01T15:02:08;46.97;;;22.10;;
42260;SDS011;27926;48.062;7.474;2023-03-01T15:04:41;43.05;;;23.13;;
42260;SDS011;27926;48.062;7.474;2023-03-01T15:07:09;40.08;;;22.27;;
42260;SDS011;27926;48.062;7.474;2023-03-01T15:09:38;44.97;;;21.85;;
42260;SDS011;27926;48.062;7.474;2023-03-01T15:15:00;47.17;;;23.60;;
42260;SDS011;27926;48.062;7.474;2023-03-01T15:20:03;44.05;;;21.60;;
42260;SDS011;27926;48.062;7.474;2023-03-01T15:22:30;43.70;;;23.13;;
42260;SDS011;27926;48.062;7.474;2023-03-01T15:27:25;42.05;;;22.15;;
42260;SDS011;27926;48.062;7.474;2023-03-01T15:29:51;52.22;;;23.77;;
42260;SDS011;27926;48.062;7.474;2023-03-01T15:35:01;45.63;;;22.10;;
42260;SDS011;27926;48.062;7.474;2023-03-01T15:37:57;49.80;;;22.88;;
42260;SDS011;27926;48.062;7.474;2023-03-01T15:40:25;49.35;;;24.30;;
42260;SDS011;27926;48.062;7.474;2023-03-01T15:43:04;43.65;;;20.92;;
42260;SDS011;27926;48.062;7.474;2023-03-01T15:45:31;47.03;;;23.70;;
42260;SDS011;27926;48.062;7.474;2023-03-01T15:48:04;41.75;;;21.60;;
42260;SDS011;27926;48.062;7.474;2023-03-01T15:50:38;45.00;;;22.80;;
42260;SDS011;27926;48.062;7.474;2023-03-01T15:53:05;44.85;;;22.77;;
42260;SDS011;27926;48.062;7.474;2023-03-01T15:55:32;44.33;;;21.50;;
42260;SDS011;27926;48.062;7.474;2023-03-01T15:58:00;47.10;;;23.05;;
42260;SDS011;27926;48.062;7.474;2023-03-01T16:00:30;50.15;;;21.85;;
42260;SDS011;27926;48.062;7.474;2023-03-01T16:02:55;58.97;;;23.52;;
42260;SDS011;27926;48.062;7.474;2023-03-01T16:05:38;44.77;;;22.70;;
42260;SDS011;27926;48.062;7.474;2023-03-01T16:08:04;48.35;;;23.40;;
42260;SDS011;27926;48.062;7.474;2023-03-01T16:10:29;47.50;;;22.75;;
42260;SDS011;27926;48.062;7.474;2023-03-01T16:12:55;44.58;;;23.13;;
42260;SDS011;27926;48.062;7.474;2023-03-01T16:15:21;50.83;;;25.15;;
42260;SDS011;27926;48.062;7.474;2023-03-01T16:17:51;55.65;;;24.83;;
42260;SDS011;27926;48.062;7.474;2023-03-01T16:20:18;46.00;;;22.63;;
42260;SDS011;27926;48.062;7.474;2023-03-01T16:22:44;51.47;;;24.23;;
42260;SDS011;27926;48.062;7.474;2023-03-01T16:25:10;59.35;;;24.67;;
42260;SDS011;27926;48.062;7.474;2023-03-01T16:27:36;55.42;;;24.63;;
42260;SDS011;27926;48.062;7.474;2023-03-01T16:30:01;55.03;;;25.45;;
42260;SDS011;27926;48.062;7.474;2023-03-01T16:32:26;48.15;;;23.38;;
42260;SDS011;27926;48.062;7.474;2023-03-01T16:34:51;48.97;;;23.92;;
42260;SDS011;27926;48.062;7.474;2023-03-01T16:37:15;64.57;;;23.98;;
42260;SDS011;27926;48.062;7.474;2023-03-01T16:39:40;51.80;;;24.77;;
42260;SDS011;27926;48.062;7.474;2023-03-01T16:42:05;49.22;;;24.67;;
42260;SDS011;27926;48.062;7.474;2023-03-01T16:44:29;55.90;;;24.45;;
42260;SDS011;27926;48.062;7.474;2023-03-01T16:46:54;50.55;;;24.17;;
42260;SDS011;27926;48.062;7.474;2023-03-01T16:49:18;45.50;;;22.55;;
42260;SDS011;27926;48.062;7.474;2023-03-01T16:51:43;46.40;;;23.67;;
42260;SDS011;27926;48.062;7.474;2023-03-01T16:54:08;49.45;;;23.55;;
42260;SDS011;27926;48.062;7.474;2023-03-01T16:56:33;57.50;;;22.20;;
42260;SDS011;27926;48.062;7.474;2023-03-01T16:59:01;61.20;;;23.98;;
42260;SDS011;27926;48.062;7.474;2023-03-01T17:01:26;48.22;;;23.35;;
42260;SDS011;27926;48.062;7.474;2023-03-01T17:03:56;58.80;;;24.50;;
42260;SDS011;27926;48.062;7.474;2023-03-01T17:06:21;39.92;;;22.58;;
